sensor_id;sensor_type;location;lat;lon;timestamp;pressure;altitude;pressure_sealevel;temperature;humidity
18988;BME280;5494;51.796;10.952;2023-02-28T00:01:28;100378.69;;;0.49;74.24
18988;BME280;5494;51.796;10.952;2023-02-28T00:03:57;100370.22;;;0.51;75.28
18988;BME280;5494;51.796;10.952;2023-02-28T00:06:25;100367.72;;;0.54;75.85
18988;BME280;5494;51.796;10.952;2023-02-28T00:08:54;100365.06;;;0.50;76.04
18988;BME280;5494;51.796;10.952;2023-02-28T00:11:23;100365.97;;;0.52;77.27
18988;BME280;5494;51.796;10.952;2023-02-28T00:13:51;100364.31;;;0.55;77.82
18988;BME280;5494;51.796;10.952;2023-02-28T00:16:21;100350.69;;;0.58;78.29
18988;BME280;5494;51.796;10.952;2023-02-28T00:18:50;100354.94;;;0.57;78.18
18988;BME280;5494;51.796;10.952;2023-02-28T00:21:19;100356.66;;;0.58;77.44
18988;BME280;5494;51.796;10.952;2023-02-28T00:23:48;100362.53;;;0.51;77.30
18988;BME280;5494;51.796;10.952;2023-02-28T00:26:18;100358.31;;;0.53;76.82
18988;BME280;5494;51.796;10.952;2023-02-28T00:28:48;100351.53;;;0.55;76.77
18988;BME280;5494;51.796;10.952;2023-02-28T00:31:16;100363.56;;;0.65;76.44
18988;BME280;5494;51.796;10.952;2023-02-28T00:33:44;100356.72;;;0.64;75.99
18988;BME280;5494;51.796;10.952;2023-02-28T00:36:14;100363.53;;;0.64;74.64
18988;BME280;5494;51.796;10.952;2023-02-28T00:38:42;100362.81;;;0.74;73.38
18988;BME280;5494;51.796;10.952;2023-02-28T00:41:09;100373.88;;;0.71;72.93
18988;BME280;5494;51.796;10.952;2023-02-28T00:43:39;100373.78;;;0.65;74.12
18988;BME280;5494;51.796;10.952;2023-02-28T00:46:10;100370.22;;;0.51;76.34
18988;BME280;5494;51.796;10.952;2023-02-28T00:48:38;100384.59;;;0.43;77.59
18988;BME280;5494;51.796;10.952;2023-02-28T00:51:05;100378.78;;;0.53;78.87
18988;BME280;5494;51.796;10.952;2023-02-28T00:53:34;100380.44;;;0.48;79.12
18988;BME280;5494;51.796;10.952;2023-02-28T00:56:03;100382.09;;;0.46;80.66
18988;BME280;5494;51.796;10.952;2023-02-28T00:58:31;100382.13;;;0.51;80.97
18988;BME280;5494;51.796;10.952;2023-02-28T01:01:00;100378.78;;;0.56;81.86
18988;BME280;5494;51.796;10.952;2023-02-28T01:03:28;100382.28;;;0.61;82.21
18988;BME280;5494;51.796;10.952;2023-02-28T01:05:58;100375.44;;;0.59;82.16
18988;BME280;5494;51.796;10.952;2023-02-28T01:08:26;100372.91;;;0.63;82.51
18988;BME280;5494;51.796;10.952;2023-02-28T01:10:54;100372.91;;;0.60;83.00
18988;BME280;5494;51.796;10.952;2023-02-28T01:13:23;100369.50;;;0.64;82.47
18988;BME280;5494;51.796;10.952;2023-02-28T01:15:55;100366.06;;;0.62;82.27
18988;BME280;5494;51.796;10.952;2023-02-28T01:18:25;100372.91;;;0.62;81.71
18988;BME280;5494;51.796;10.952;2023-02-28T01:20:53;100360.97;;;0.61;80.45
18988;BME280;5494;51.796;10.952;2023-02-28T01:23:23;100352.38;;;0.57;80.22
18988;BME280;5494;51.796;10.952;2023-02-28T01:25:51;100369.59;;;0.69;79.99
18988;BME280;5494;51.796;10.952;2023-02-28T01:28:19;100370.34;;;0.63;79.29
18988;BME280;5494;51.796;10.952;2023-02-28T01:30:49;100367.81;;;0.62;79.12
18988;BME280;5494;51.796;10.952;2023-02-28T01:33:18;100360.13;;;0.62;79.14
18988;BME280;5494;51.796;10.952;2023-02-28T01:35:48;100360.13;;;0.63;78.75
18988;BME280;5494;51.796;10.952;2023-02-28T01:38:16;100372.06;;;0.61;79.05
18988;BME280;5494;51.796;10.952;2023-02-28T01:40:49;100362.63;;;0.59;79.57
18988;BME280;5494;51.796;10.952;2023-02-28T01:43:23;100359.25;;;0.60;79.99
18988;BME280;5494;51.796;10.952;2023-02-28T01:45:56;100359.19;;;0.55;79.59
18988;BME280;5494;51.796;10.952;2023-02-28T01:48:29;100357.56;;;0.62;78.96
18988;BME280;5494;51.796;10.952;2023-02-28T01:51:06;100354.19;;;0.66;78.77
18988;BME280;5494;51.796;10.952;2023-02-28T01:53:41;100352.50;;;0.69;78.07
18988;BME280;5494;51.796;10.952;2023-02-28T01:56:16;100353.41;;;0.73;76.61
18988;BME280;5494;51.796;10.952;2023-02-28T01:58:49;100357.63;;;0.68;76.36
18988;BME280;5494;51.796;10.952;2023-02-28T02:01:20;100349.13;;;0.70;76.38
18988;BME280;5494;51.796;10.952;2023-02-28T02:03:50;100351.81;;;0.83;75.52
18988;BME280;5494;51.796;10.952;2023-02-28T02:06:31;100352.53;;;0.68;76.65
18988;BME280;5494;51.796;10.952;2023-02-28T02:09:01;100351.66;;;0.67;77.90
18988;BME280;5494;51.796;10.952;2023-02-28T02:11:30;100352.44;;;0.60;78.03
18988;BME280;5494;51.796;10.952;2023-02-28T02:14:30;100340.50;;;0.61;79.09
18988;BME280;5494;51.796;10.952;2023-02-28T02:17:15;100340.44;;;0.58;79.52
18988;BME280;5494;51.796;10.952;2023-02-28T02:20:19;100332.63;;;0.46;80.51
18988;BME280;5494;51.796;10.952;2023-02-28T02:23:30;100340.31;;;0.46;80.42
18988;BME280;5494;51.796;10.952;2023-02-28T02:26:23;100337.72;;;0.44;80.01
18988;BME280;5494;51.796;10.952;2023-02-28T02:29:26;100334.28;;;0.42;79.54
18988;BME280;5494;51.796;10.952;2023-02-28T02:32:19;100334.38;;;0.48;79.35
18988;BME280;5494;51.796;10.952;2023-02-28T02:35:07;100330.94;;;0.46;79.29
18988;BME280;5494;51.796;10.952;2023-02-28T02:37:48;100331.88;;;0.53;78.28
18988;BME280;5494;51.796;10.952;2023-02-28T02:40:22;100330.19;;;0.55;78.26
18988;BME280;5494;51.796;10.952;2023-02-28T02:42:55;100343.00;;;0.58;76.88
18988;BME280;5494;51.796;10.952;2023-02-28T02:45:33;100334.34;;;0.45;77.17
18988;BME280;5494;51.796;10.952;2023-02-28T02:48:07;100337.72;;;0.43;77.30
18988;BME280;5494;51.796;10.952;2023-02-28T02:50:43;100341.16;;;0.45;78.27
18988;BME280;5494;51.796;10.952;2023-02-28T02:53:15;100337.75;;;0.46;78.28
18988;BME280;5494;51.796;10.952;2023-02-28T02:55:53;100342.84;;;0.41;78.10
18988;BME280;5494;51.796;10.952;2023-02-28T02:58:29;100336.06;;;0.46;78.43
18988;BME280;5494;51.796;10.952;2023-02-28T03:43:56;100348.53;;;0.20;83.05
18988;BME280;5494;51.796;10.952;2023-02-28T03:46:52;100352.88;;;0.29;80.49
18988;BME280;5494;51.796;10.952;2023-02-28T03:49:46;100351.22;;;0.31;78.98
18988;BME280;5494;51.796;10.952;2023-02-28T03:52:45;100357.22;;;0.33;78.49
18988;BME280;5494;51.796;10.952;2023-02-28T03:55:45;100344.44;;;0.33;77.75
18988;BME280;5494;51.796;10.952;2023-02-28T03:58:42;100356.41;;;0.37;77.40
18988;BME280;5494;51.796;10.952;2023-02-28T04:01:38;100349.72;;;0.48;76.93
18988;BME280;5494;51.796;10.952;2023-02-28T04:04:28;100348.03;;;0.50;76.36
18988;BME280;5494;51.796;10.952;2023-02-28T04:07:17;100346.25;;;0.43;76.66
18988;BME280;5494;51.796;10.952;2023-02-28T04:10:07;100349.63;;;0.39;77.42
18988;BME280;5494;51.796;10.952;2023-02-28T04:12:55;100354.78;;;0.44;77.22
18988;BME280;5494;51.796;10.952;2023-02-28T04:15:44;100349.72;;;0.48;77.50
18988;BME280;5494;51.796;10.952;2023-02-28T04:18:34;100354.75;;;0.42;76.77
18988;BME280;5494;51.796;10.952;2023-02-28T04:21:22;100355.50;;;0.32;77.31
18988;BME280;5494;51.796;10.952;2023-02-28T04:24:16;100353.00;;;0.38;77.45
18988;BME280;5494;51.796;10.952;2023-02-28T04:27:04;100349.56;;;0.36;77.89
18988;BME280;5494;51.796;10.952;2023-02-28T04:29:53;100358.16;;;0.43;77.81
18988;BME280;5494;51.796;10.952;2023-02-28T04:32:41;100364.03;;;0.32;78.16
18988;BME280;5494;51.796;10.952;2023-02-28T04:35:31;100356.19;;;0.22;79.35
18988;BME280;5494;51.796;10.952;2023-02-28T04:38:19;100347.75;;;0.26;80.15
18988;BME280;5494;51.796;10.952;2023-02-28T04:41:07;100349.47;;;0.27;79.85
18988;BME280;5494;51.796;10.952;2023-02-28T04:43:56;100355.34;;;0.21;79.50
18988;BME280;5494;51.796;10.952;2023-02-28T04:46:44;100354.47;;;0.19;80.39
18988;BME280;5494;51.796;10.952;2023-02-28T04:49:33;100361.06;;;0.04;80.63
18988;BME280;5494;51.796;10.952;2023-02-28T04:52:22;100351.75;;;0.06;80.99
18988;BME280;5494;51.796;10.952;2023-02-28T04:55:11;100355.06;;;-0.02;81.39
18988;BME280;5494;51.796;10.952;2023-02-28T04:57:59;100360.13;;;-0.03;81.75
18988;BME280;5494;51.796;10.952;2023-02-28T05:00:48;100355.94;;;0.02;81.01
18988;BME280;5494;51.796;10.952;2023-02-28T05:03:36;100360.06;;;-0.06;81.46
18988;BME280;5494;51.796;10.952;2023-02-28T05:06:27;100360.91;;;-0.09;82.42
18988;BME280;5494;51.796;10.952;2023-02-28T05:09:18;100360.06;;;-0.08;82.08
18988;BME280;5494;51.796;10.952;2023-02-28T05:12:08;100372.78;;;-0.11;82.63
18988;BME280;5494;51.796;10.952;2023-02-28T05:14:56;100366.81;;;-0.11;83.70
18988;BME280;5494;51.796;10.952;2023-02-28T05:17:45;100373.59;;;-0.13;84.35
18988;BME280;5494;51.796;10.952;2023-02-28T05:20:33;100364.97;;;-0.20;85.14
18988;BME280;5494;51.796;10.952;2023-02-28T05:23:22;100373.41;;;-0.25;85.97
18988;BME280;5494;51.796;10.952;2023-02-28T05:26:13;100369.97;;;-0.29;86.55
18988;BME280;5494;51.796;10.952;2023-02-28T05:29:01;100366.69;;;-0.20;86.52
18988;BME280;5494;51.796;10.952;2023-02-28T05:31:50;100378.47;;;-0.30;86.20
18988;BME280;5494;51.796;10.952;2023-02-28T05:34:39;100381.00;;;-0.31;87.41
18988;BME280;5494;51.796;10.952;2023-02-28T05:37:28;100375.81;;;-0.34;87.15
18988;BME280;5494;51.796;10.952;2023-02-28T05:40:17;100373.06;;;-0.48;87.63
18988;BME280;5494;51.796;10.952;2023-02-28T05:43:11;100383.34;;;-0.45;88.38
18988;BME280;5494;51.796;10.952;2023-02-28T05:46:03;100380.78;;;-0.45;88.84
18988;BME280;5494;51.796;10.952;2023-02-28T05:48:52;100389.34;;;-0.43;89.67
18988;BME280;5494;51.796;10.952;2023-02-28T05:51:40;100390.22;;;-0.40;89.64
18988;BME280;5494;51.796;10.952;2023-02-28T05:54:29;100397.06;;;-0.38;90.07
18988;BME280;5494;51.796;10.952;2023-02-28T05:57:17;100399.66;;;-0.37;90.34
18988;BME280;5494;51.796;10.952;2023-02-28T06:00:13;100394.56;;;-0.35;90.47
18988;BME280;5494;51.796;10.952;2023-02-28T06:03:04;100399.66;;;-0.37;91.22
18988;BME280;5494;51.796;10.952;2023-02-28T06:05:53;100401.38;;;-0.36;91.73
18988;BME280;5494;51.796;10.952;2023-02-28T06:08:42;100402.22;;;-0.34;91.86
18988;BME280;5494;51.796;10.952;2023-02-28T06:11:30;100404.91;;;-0.28;91.56
18988;BME280;5494;51.796;10.952;2023-02-28T06:14:20;100399.06;;;-0.19;90.80
18988;BME280;5494;51.796;10.952;2023-02-28T06:17:10;100395.69;;;-0.17;90.83
18988;BME280;5494;51.796;10.952;2023-02-28T06:19:58;100397.44;;;-0.16;91.02
18988;BME280;5494;51.796;10.952;2023-02-28T06:22:46;100406.81;;;-0.15;91.23
18988;BME280;5494;51.796;10.952;2023-02-28T06:25:35;100406.91;;;-0.09;90.29
18988;BME280;5494;51.796;10.952;2023-02-28T06:28:24;100407.13;;;0.07;90.11
18988;BME280;5494;51.796;10.952;2023-02-28T06:31:15;100404.50;;;0.02;89.72
18988;BME280;5494;51.796;10.952;2023-02-28T06:34:05;100414.69;;;0.00;90.24
18988;BME280;5494;51.796;10.952;2023-02-28T06:36:53;100408.00;;;0.09;89.78
18988;BME280;5494;51.796;10.952;2023-02-28T06:39:42;100414.31;;;0.32;89.25
18988;BME280;5494;51.796;10.952;2023-02-28T06:42:30;100413.56;;;0.42;87.90
18988;BME280;5494;51.796;10.952;2023-02-28T06:45:19;100417.94;;;0.51;86.90
18988;BME280;5494;51.796;10.952;2023-02-28T06:48:07;100424.09;;;0.62;86.73
18988;BME280;5494;51.796;10.952;2023-02-28T06:51:04;100431.06;;;0.76;86.59
18988;BME280;5494;51.796;10.952;2023-02-28T06:53:53;100425.22;;;0.87;85.09
18988;BME280;5494;51.796;10.952;2023-02-28T06:56:42;100429.59;;;0.95;84.41
18988;BME280;5494;51.796;10.952;2023-02-28T06:59:30;100429.97;;;1.32;83.17
18988;BME280;5494;51.796;10.952;2023-02-28T07:02:19;100428.34;;;1.40;81.04
18988;BME280;5494;51.796;10.952;2023-02-28T07:05:08;100428.38;;;1.41;79.50
18988;BME280;5494;51.796;10.952;2023-02-28T07:07:58;100437.00;;;1.52;79.68
18988;BME280;5494;51.796;10.952;2023-02-28T07:10:46;100442.09;;;1.48;79.24
18988;BME280;5494;51.796;10.952;2023-02-28T07:13:35;100437.84;;;1.50;79.88
18988;BME280;5494;51.796;10.952;2023-02-28T07:16:25;100436.34;;;1.72;80.77
18988;BME280;5494;51.796;10.952;2023-02-28T07:19:13;100437.47;;;2.10;79.91
18988;BME280;5494;51.796;10.952;2023-02-28T07:22:01;100439.47;;;2.63;77.73
18988;BME280;5494;51.796;10.952;2023-02-28T07:24:51;100422.63;;;3.36;73.32
18988;BME280;5494;51.796;10.952;2023-02-28T07:27:39;100434.66;;;4.00;68.70
18988;BME280;5494;51.796;10.952;2023-02-28T07:30:28;100438.00;;;4.46;65.82
18988;BME280;5494;51.796;10.952;2023-02-28T07:33:16;100430.94;;;5.01;62.02
18988;BME280;5494;51.796;10.952;2023-02-28T07:36:08;100435.47;;;4.23;62.11
18988;BME280;5494;51.796;10.952;2023-02-28T07:39:01;100441.50;;;4.07;63.82
18988;BME280;5494;51.796;10.952;2023-02-28T07:41:51;100437.91;;;4.82;63.47
18988;BME280;5494;51.796;10.952;2023-02-28T07:44:44;100439.03;;;5.80;59.03
18988;BME280;5494;51.796;10.952;2023-02-28T07:47:33;100441.97;;;6.39;55.40
18988;BME280;5494;51.796;10.952;2023-02-28T07:50:22;100437.25;;;6.77;53.75
18988;BME280;5494;51.796;10.952;2023-02-28T07:53:13;100432.34;;;7.23;51.87
18988;BME280;5494;51.796;10.952;2023-02-28T07:56:02;100440.22;;;6.39;52.82
18988;BME280;5494;51.796;10.952;2023-02-28T07:58:52;100442.97;;;6.24;54.08
18988;BME280;5494;51.796;10.952;2023-02-28T08:01:41;100451.16;;;6.64;53.34
18988;BME280;5494;51.796;10.952;2023-02-28T08:04:32;100444.00;;;6.87;53.47
18988;BME280;5494;51.796;10.952;2023-02-28T08:07:20;100447.69;;;6.65;52.41
18988;BME280;5494;51.796;10.952;2023-02-28T08:10:10;100449.06;;;6.96;51.17
18988;BME280;5494;51.796;10.952;2023-02-28T08:12:58;100437.25;;;7.40;49.75
18988;BME280;5494;51.796;10.952;2023-02-28T08:15:48;100438.41;;;7.79;49.74
18988;BME280;5494;51.796;10.952;2023-02-28T08:18:37;100441.41;;;7.53;48.79
18988;BME280;5494;51.796;10.952;2023-02-28T08:21:25;100437.31;;;7.94;48.43
18988;BME280;5494;51.796;10.952;2023-02-28T08:24:14;100441.97;;;7.70;48.83
18988;BME280;5494;51.796;10.952;2023-02-28T08:27:02;100446.19;;;6.46;50.60
18988;BME280;5494;51.796;10.952;2023-02-28T08:29:51;100444.22;;;6.69;50.21
18988;BME280;5494;51.796;10.952;2023-02-28T08:32:41;100445.59;;;6.19;52.53
18988;BME280;5494;51.796;10.952;2023-02-28T08:35:29;100441.41;;;6.89;50.99
18988;BME280;5494;51.796;10.952;2023-02-28T08:38:18;100445.00;;;5.87;51.52
18988;BME280;5494;51.796;10.952;2023-02-28T08:41:10;100451.06;;;5.80;53.01
18988;BME280;5494;51.796;10.952;2023-02-28T08:43:59;100445.16;;;5.66;52.73
18988;BME280;5494;51.796;10.952;2023-02-28T08:46:48;100452.50;;;4.82;56.83
18988;BME280;5494;51.796;10.952;2023-02-28T08:49:38;100453.00;;;5.52;54.60
18988;BME280;5494;51.796;10.952;2023-02-28T08:52:27;100447.50;;;6.01;53.26
18988;BME280;5494;51.796;10.952;2023-02-28T08:55:15;100453.94;;;6.46;52.31
18988;BME280;5494;51.796;10.952;2023-02-28T08:58:03;100449.41;;;6.66;50.25
18988;BME280;5494;51.796;10.952;2023-02-28T09:00:52;100455.72;;;6.39;46.76
18988;BME280;5494;51.796;10.952;2023-02-28T09:03:42;100458.38;;;6.36;49.49
18988;BME280;5494;51.796;10.952;2023-02-28T09:06:34;100458.53;;;6.16;46.97
18988;BME280;5494;51.796;10.952;2023-02-28T09:09:23;100455.28;;;5.95;47.51
18988;BME280;5494;51.796;10.952;2023-02-28T09:12:11;100465.16;;;5.29;49.77
18988;BME280;5494;51.796;10.952;2023-02-28T09:14:59;100456.41;;;5.55;47.58
18988;BME280;5494;51.796;10.952;2023-02-28T09:17:48;100450.03;;;6.02;45.62
18988;BME280;5494;51.796;10.952;2023-02-28T09:20:38;100458.38;;;5.08;49.04
18988;BME280;5494;51.796;10.952;2023-02-28T09:23:28;100447.81;;;5.53;53.24
18988;BME280;5494;51.796;10.952;2023-02-28T09:26:20;100457.38;;;6.45;48.16
18988;BME280;5494;51.796;10.952;2023-02-28T09:29:09;100459.25;;;6.32;47.51
18988;BME280;5494;51.796;10.952;2023-02-28T09:31:58;100453.13;;;6.41;46.22
18988;BME280;5494;51.796;10.952;2023-02-28T09:34:46;100459.31;;;6.24;49.81
18988;BME280;5494;51.796;10.952;2023-02-28T09:37:35;100470.59;;;6.14;46.49
18988;BME280;5494;51.796;10.952;2023-02-28T09:40:26;100456.66;;;5.08;48.56
18988;BME280;5494;51.796;10.952;2023-02-28T09:43:16;100461.66;;;5.39;47.17
18988;BME280;5494;51.796;10.952;2023-02-28T09:46:21;100461.25;;;6.01;46.91
18988;BME280;5494;51.796;10.952;2023-02-28T09:49:17;100458.88;;;5.68;48.67
18988;BME280;5494;51.796;10.952;2023-02-28T09:52:12;100465.22;;;5.13;44.06
18988;BME280;5494;51.796;10.952;2023-02-28T09:55:20;100468.91;;;4.36;47.64
18988;BME280;5494;51.796;10.952;2023-02-28T09:58:22;100470.50;;;4.79;46.81
18988;BME280;5494;51.796;10.952;2023-02-28T10:01:25;100468.03;;;4.48;47.32
18988;BME280;5494;51.796;10.952;2023-02-28T10:04:34;100478.34;;;3.75;48.66
18988;BME280;5494;51.796;10.952;2023-02-28T10:07:49;100483.50;;;3.69;48.89
18988;BME280;5494;51.796;10.952;2023-02-28T10:10:45;100479.16;;;3.36;50.67
18988;BME280;5494;51.796;10.952;2023-02-28T10:13:46;100474.09;;;3.85;50.15
18988;BME280;5494;51.796;10.952;2023-02-28T10:16:42;100467.25;;;3.93;49.03
18988;BME280;5494;51.796;10.952;2023-02-28T10:19:42;100472.38;;;3.85;49.58
18988;BME280;5494;51.796;10.952;2023-02-28T10:22:50;100466.34;;;4.29;48.77
18988;BME280;5494;51.796;10.952;2023-02-28T10:25:42;100469.78;;;4.22;49.69
18988;BME280;5494;51.796;10.952;2023-02-28T10:28:36;100466.34;;;4.09;49.87
18988;BME280;5494;51.796;10.952;2023-02-28T10:31:25;100473.22;;;4.04;49.36
18988;BME280;5494;51.796;10.952;2023-02-28T10:34:13;100472.34;;;4.32;48.35
18988;BME280;5494;51.796;10.952;2023-02-28T10:37:03;100478.38;;;3.93;50.02
18988;BME280;5494;51.796;10.952;2023-02-28T10:39:55;100477.50;;;4.10;49.05
18988;BME280;5494;51.796;10.952;2023-02-28T10:42:55;100475.78;;;4.34;47.73
18988;BME280;5494;51.796;10.952;2023-02-28T10:45:58;100473.25;;;4.06;48.60
18988;BME280;5494;51.796;10.952;2023-02-28T10:49:00;100464.59;;;4.48;48.87
18988;BME280;5494;51.796;10.952;2023-02-28T10:51:54;100467.19;;;3.60;49.05
18988;BME280;5494;51.796;10.952;2023-02-28T10:54:43;100453.50;;;3.97;49.67
18988;BME280;5494;51.796;10.952;2023-02-28T10:57:32;100454.38;;;3.79;48.53
18988;BME280;5494;51.796;10.952;2023-02-28T11:00:24;100470.66;;;3.72;48.39
18988;BME280;5494;51.796;10.952;2023-02-28T11:03:28;100462.94;;;3.66;51.25
18988;BME280;5494;51.796;10.952;2023-02-28T11:06:20;100456.03;;;3.32;48.81
18988;BME280;5494;51.796;10.952;2023-02-28T11:09:22;100463.78;;;3.68;51.25
18988;BME280;5494;51.796;10.952;2023-02-28T11:12:22;100449.19;;;3.46;50.04
18988;BME280;5494;51.796;10.952;2023-02-28T11:15:23;100460.19;;;3.01;50.94
18988;BME280;5494;51.796;10.952;2023-02-28T11:18:30;100472.06;;;2.73;52.76
18988;BME280;5494;51.796;10.952;2023-02-28T11:21:28;100455.84;;;2.80;51.43
18988;BME280;5494;51.796;10.952;2023-02-28T11:24:24;100444.78;;;2.99;52.61
18988;BME280;5494;51.796;10.952;2023-02-28T11:27:39;100443.94;;;2.97;54.99
18988;BME280;5494;51.796;10.952;2023-02-28T11:30:36;100439.69;;;3.19;54.24
18988;BME280;5494;51.796;10.952;2023-02-28T11:33:29;100442.28;;;3.17;50.96
18988;BME280;5494;51.796;10.952;2023-02-28T11:36:21;100437.13;;;3.04;50.58
18988;BME280;5494;51.796;10.952;2023-02-28T11:39:12;100430.19;;;2.92;53.40
18988;BME280;5494;51.796;10.952;2023-02-28T11:42:22;100435.19;;;2.54;51.04
18988;BME280;5494;51.796;10.952;2023-02-28T11:45:24;100435.06;;;2.31;51.84
18988;BME280;5494;51.796;10.952;2023-02-28T11:48:21;100434.41;;;2.69;55.73
18988;BME280;5494;51.796;10.952;2023-02-28T11:51:21;100439.44;;;2.52;55.77
18988;BME280;5494;51.796;10.952;2023-02-28T11:54:35;100439.41;;;2.49;55.26
18988;BME280;5494;51.796;10.952;2023-02-28T11:57:55;100427.38;;;2.33;55.80
18988;BME280;5494;51.796;10.952;2023-02-28T12:01:20;100428.91;;;2.07;54.78
18988;BME280;5494;51.796;10.952;2023-02-28T12:04:24;100427.28;;;2.22;55.69
18988;BME280;5494;51.796;10.952;2023-02-28T12:07:26;100438.50;;;2.33;55.10
18988;BME280;5494;51.796;10.952;2023-02-28T12:10:22;100430.75;;;2.27;54.24
18988;BME280;5494;51.796;10.952;2023-02-28T12:13:21;100426.44;;;2.23;54.04
18988;BME280;5494;51.796;10.952;2023-02-28T12:16:29;100413.69;;;2.32;54.94
18988;BME280;5494;51.796;10.952;2023-02-28T12:19:27;100418.81;;;2.34;54.81
18988;BME280;5494;51.796;10.952;2023-02-28T12:22:30;100420.59;;;2.46;55.44
18988;BME280;5494;51.796;10.952;2023-02-28T12:25:40;100416.31;;;2.49;54.42
18988;BME280;5494;51.796;10.952;2023-02-28T12:28:39;100413.81;;;2.55;53.86
18988;BME280;5494;51.796;10.952;2023-02-28T12:31:33;100418.81;;;2.35;53.84
18988;BME280;5494;51.796;10.952;2023-02-28T12:34:31;100412.91;;;2.52;54.41
18988;BME280;5494;51.796;10.952;2023-02-28T12:37:30;100407.78;;;2.52;54.06
18988;BME280;5494;51.796;10.952;2023-02-28T12:40:23;100400.97;;;2.54;52.95
18988;BME280;5494;51.796;10.952;2023-02-28T12:43:16;100409.63;;;2.80;55.06
18988;BME280;5494;51.796;10.952;2023-02-28T12:46:12;100416.38;;;2.54;53.87
18988;BME280;5494;51.796;10.952;2023-02-28T12:49:10;100394.19;;;2.72;53.44
18988;BME280;5494;51.796;10.952;2023-02-28T12:52:03;100389.97;;;2.91;55.06
18988;BME280;5494;51.796;10.952;2023-02-28T12:55:01;100391.69;;;2.88;54.44
18988;BME280;5494;51.796;10.952;2023-02-28T12:58:01;100384.00;;;3.04;54.55
18988;BME280;5494;51.796;10.952;2023-02-28T13:01:18;100382.25;;;2.87;54.24
18988;BME280;5494;51.796;10.952;2023-02-28T13:04:46;100378.75;;;2.62;55.03
18988;BME280;5494;51.796;10.952;2023-02-28T13:08:23;100378.78;;;2.68;54.97
18988;BME280;5494;51.796;10.952;2023-02-28T13:11:29;100380.53;;;2.84;56.54
18988;BME280;5494;51.796;10.952;2023-02-28T13:14:26;100383.06;;;2.69;55.33
18988;BME280;5494;51.796;10.952;2023-02-28T13:17:20;100384.69;;;2.52;55.77
18988;BME280;5494;51.796;10.952;2023-02-28T13:20:17;100376.19;;;2.65;55.62
18988;BME280;5494;51.796;10.952;2023-02-28T13:27:22;100357.41;;;2.73;55.15
18988;BME280;5494;51.796;10.952;2023-02-28T13:34:14;100348.84;;;2.68;53.80
18988;BME280;5494;51.796;10.952;2023-02-28T13:37:37;100361.69;;;2.85;54.73
18988;BME280;5494;51.796;10.952;2023-02-28T13:40:32;100354.84;;;2.84;54.13
18988;BME280;5494;51.796;10.952;2023-02-28T13:44:01;100351.47;;;2.90;54.18
18988;BME280;5494;51.796;10.952;2023-02-28T13:47:23;100351.44;;;2.88;53.05
18988;BME280;5494;51.796;10.952;2023-02-28T13:50:24;100342.03;;;2.81;54.53
18988;BME280;5494;51.796;10.952;2023-02-28T13:53:53;100348.88;;;2.87;53.91
18988;BME280;5494;51.796;10.952;2023-02-28T13:56:52;100352.31;;;2.87;52.56
18988;BME280;5494;51.796;10.952;2023-02-28T13:59:59;100347.16;;;2.75;53.86
18988;BME280;5494;51.796;10.952;2023-02-28T14:03:30;100340.31;;;2.85;54.01
18988;BME280;5494;51.796;10.952;2023-02-28T14:06:26;100342.03;;;2.87;54.72
18988;BME280;5494;51.796;10.952;2023-02-28T14:09:23;100341.16;;;2.76;53.92
18988;BME280;5494;51.796;10.952;2023-02-28T14:12:54;100350.59;;;2.92;54.67
18988;BME280;5494;51.796;10.952;2023-02-28T14:15:57;100341.19;;;2.93;55.25
18988;BME280;5494;51.796;10.952;2023-02-28T14:18:51;100336.91;;;2.98;54.09
18988;BME280;5494;51.796;10.952;2023-02-28T14:22:01;100341.22;;;2.97;55.46
18988;BME280;5494;51.796;10.952;2023-02-28T14:25:10;100342.94;;;3.09;56.52
18988;BME280;5494;51.796;10.952;2023-02-28T14:28:14;100347.19;;;2.99;55.09
18988;BME280;5494;51.796;10.952;2023-02-28T14:31:13;100348.06;;;3.03;53.63
18988;BME280;5494;51.796;10.952;2023-02-28T14:34:20;100342.06;;;2.96;54.27
18988;BME280;5494;51.796;10.952;2023-02-28T14:37:19;100357.47;;;3.05;53.15
18988;BME280;5494;51.796;10.952;2023-02-28T14:40:15;100343.75;;;3.05;53.62
18988;BME280;5494;51.796;10.952;2023-02-28T14:43:19;100341.19;;;2.96;54.77
18988;BME280;5494;51.796;10.952;2023-02-28T14:46:13;100340.34;;;2.94;53.97
18988;BME280;5494;51.796;10.952;2023-02-28T14:49:03;100342.91;;;2.98;55.13
18988;BME280;5494;51.796;10.952;2023-02-28T14:52:07;100341.19;;;3.05;54.20
18988;BME280;5494;51.796;10.952;2023-02-28T14:55:03;100344.59;;;2.92;53.61
18988;BME280;5494;51.796;10.952;2023-02-28T14:57:56;100331.78;;;2.90;54.06
18988;BME280;5494;51.796;10.952;2023-02-28T15:00:48;100336.91;;;2.95;53.92
18988;BME280;5494;51.796;10.952;2023-02-28T15:03:39;100342.03;;;2.81;54.92
18988;BME280;5494;51.796;10.952;2023-02-28T15:06:30;100330.03;;;2.91;55.49
18988;BME280;5494;51.796;10.952;2023-02-28T15:09:18;100333.50;;;2.97;55.12
18988;BME280;5494;51.796;10.952;2023-02-28T15:12:13;100328.34;;;2.90;54.86
18988;BME280;5494;51.796;10.952;2023-02-28T15:15:04;100323.22;;;2.99;55.68
18988;BME280;5494;51.796;10.952;2023-02-28T15:17:57;100324.91;;;2.98;56.27
18988;BME280;5494;51.796;10.952;2023-02-28T15:20:50;100318.94;;;2.93;56.34
18988;BME280;5494;51.796;10.952;2023-02-28T15:23:42;100328.31;;;2.85;56.52
18988;BME280;5494;51.796;10.952;2023-02-28T15:26:37;100328.31;;;2.81;56.10
18988;BME280;5494;51.796;10.952;2023-02-28T15:29:29;100325.75;;;2.77;56.66
18988;BME280;5494;51.796;10.952;2023-02-28T15:32:27;100327.47;;;2.83;57.55
18988;BME280;5494;51.796;10.952;2023-02-28T15:35:29;100329.19;;;2.81;56.79
18988;BME280;5494;51.796;10.952;2023-02-28T15:38:24;100318.91;;;2.81;57.45
18988;BME280;5494;51.796;10.952;2023-02-28T15:41:25;100322.31;;;2.77;56.92
18988;BME280;5494;51.796;10.952;2023-02-28T15:44:22;100313.78;;;2.83;56.79
18988;BME280;5494;51.796;10.952;2023-02-28T15:47:19;100315.47;;;2.73;55.85
18988;BME280;5494;51.796;10.952;2023-02-28T15:50:13;100315.47;;;2.67;57.02
18988;BME280;5494;51.796;10.952;2023-02-28T15:53:02;100315.44;;;2.64;57.49